sensor_id;sensor_type;location;lat;lon;timestamp;temperature;humidity
37285;DHT22;23172;53.550;9.964;2023-04-08T00:01:46;9.80;88.90
37285;DHT22;23172;53.550;9.964;2023-04-08T00:06:49;9.80;89.20
37285;DHT22;23172;53.550;9.964;2023-04-08T00:11:51;9.80;89.60
37285;DHT22;23172;53.550;9.964;2023-04-08T00:16:53;9.80;90.00
37285;DHT22;23172;53.550;9.964;2023-04-08T00:21:56;9.70;90.30
37285;DHT22;23172;53.550;9.964;2023-04-08T00:26:58;9.70;90.30
37285;DHT22;23172;53.550;9.964;2023-04-08T00:32:00;9.70;90.30
37285;DHT22;23172;53.550;9.964;2023-04-08T00:37:04;9.70;90.80
37285;DHT22;23172;53.550;9.964;2023-04-08T00:42:06;9.70;91.10
37285;DHT22;23172;53.550;9.964;2023-04-08T00:47:11;9.70;90.70
37285;DHT22;23172;53.550;9.964;2023-04-08T00:52:14;9.70;90.80
37285;DHT22;23172;53.550;9.964;2023-04-08T00:57:16;9.70;91.00
37285;DHT22;23172;53.550;9.964;2023-04-08T01:02:22;9.70;91.20
37285;DHT22;23172;53.550;9.964;2023-04-08T01:07:31;9.70;91.20
37285;DHT22;23172;53.550;9.964;2023-04-08T01:12:39;9.70;91.20
37285;DHT22;23172;53.550;9.964;2023-04-08T01:17:43;9.80;91.10
37285;DHT22;23172;53.550;9.964;2023-04-08T01:23:00;9.80;91.20
37285;DHT22;23172;53.550;9.964;2023-04-08T01:28:06;9.80;91.40
37285;DHT22;23172;53.550;9.964;2023-04-08T01:33:10;9.80;91.30
37285;DHT22;23172;53.550;9.964;2023-04-08T01:38:15;9.80;91.30
37285;DHT22;23172;53.550;9.964;2023-04-08T01:43:19;9.80;91.20
37285;DHT22;23172;53.550;9.964;2023-04-08T01:48:21;9.80;91.30
37285;DHT22;23172;53.550;9.964;2023-04-08T01:53:24;9.80;91.40
37285;DHT22;23172;53.550;9.964;2023-04-08T01:58:28;9.80;91.40
37285;DHT22;23172;53.550;9.964;2023-04-08T02:03:33;9.80;91.50
37285;DHT22;23172;53.550;9.964;2023-04-08T02:08:36;9.70;91.50
37285;DHT22;23172;53.550;9.964;2023-04-08T02:13:39;9.70;91.60
37285;DHT22;23172;53.550;9.964;2023-04-08T02:18:42;9.70;91.60
37285;DHT22;23172;53.550;9.964;2023-04-08T02:23:48;9.70;91.70
37285;DHT22;23172;53.550;9.964;2023-04-08T02:28:54;9.70;91.70
37285;DHT22;23172;53.550;9.964;2023-04-08T02:33:57;9.70;92.00
37285;DHT22;23172;53.550;9.964;2023-04-08T02:38:59;9.70;91.70
37285;DHT22;23172;53.550;9.964;2023-04-08T02:44:02;9.70;91.80
37285;DHT22;23172;53.550;9.964;2023-04-08T02:49:04;9.60;91.80
37285;DHT22;23172;53.550;9.964;2023-04-08T02:54:06;9.60;91.90
37285;DHT22;23172;53.550;9.964;2023-04-08T02:59:09;9.50;92.00
37285;DHT22;23172;53.550;9.964;2023-04-08T03:04:11;9.60;92.00
37285;DHT22;23172;53.550;9.964;2023-04-08T03:09:13;9.50;92.00
37285;DHT22;23172;53.550;9.964;2023-04-08T03:14:16;9.50;92.20
37285;DHT22;23172;53.550;9.964;2023-04-08T03:19:18;9.50;92.20
37285;DHT22;23172;53.550;9.964;2023-04-08T03:24:20;9.50;92.30
37285;DHT22;23172;53.550;9.964;2023-04-08T03:29:23;9.50;92.60
37285;DHT22;23172;53.550;9.964;2023-04-08T03:34:25;9.50;92.30
37285;DHT22;23172;53.550;9.964;2023-04-08T03:39:27;9.50;92.20
37285;DHT22;23172;53.550;9.964;2023-04-08T03:44:30;9.50;92.20
37285;DHT22;23172;53.550;9.964;2023-04-08T03:49:32;9.50;92.30
37285;DHT22;23172;53.550;9.964;2023-04-08T03:54:34;9.50;92.40
37285;DHT22;23172;53.550;9.964;2023-04-08T03:59:37;9.40;92.50
37285;DHT22;23172;53.550;9.964;2023-04-08T04:04:40;9.40;92.60
37285;DHT22;23172;53.550;9.964;2023-04-08T04:09:42;9.30;92.80
37285;DHT22;23172;53.550;9.964;2023-04-08T04:14:45;9.30;92.90
37285;DHT22;23172;53.550;9.964;2023-04-08T04:19:47;9.40;92.90
37285;DHT22;23172;53.550;9.964;2023-04-08T04:24:49;9.30;93.00
37285;DHT22;23172;53.550;9.964;2023-04-08T04:29:52;9.30;93.10
37285;DHT22;23172;53.550;9.964;2023-04-08T04:34:54;9.30;93.20
37285;DHT22;23172;53.550;9.964;2023-04-08T04:39:56;9.30;93.30
37285;DHT22;23172;53.550;9.964;2023-04-08T04:44:59;9.20;93.50
37285;DHT22;23172;53.550;9.964;2023-04-08T04:50:01;9.20;93.60
37285;DHT22;23172;53.550;9.964;2023-04-08T04:55:03;9.20;93.70
37285;DHT22;23172;53.550;9.964;2023-04-08T05:00:08;9.20;93.70
37285;DHT22;23172;53.550;9.964;2023-04-08T05:05:10;9.30;93.80
37285;DHT22;23172;53.550;9.964;2023-04-08T05:10:12;9.20;93.80
37285;DHT22;23172;53.550;9.964;2023-04-08T05:15:15;9.20;93.80
37285;DHT22;23172;53.550;9.964;2023-04-08T05:20:17;9.30;93.90
37285;DHT22;23172;53.550;9.964;2023-04-08T05:25:19;9.30;94.30
37285;DHT22;23172;53.550;9.964;2023-04-08T05:30:22;9.30;94.00
37285;DHT22;23172;53.550;9.964;2023-04-08T05:35:24;9.20;94.20
37285;DHT22;23172;53.550;9.964;2023-04-08T05:40:26;9.20;94.20
37285;DHT22;23172;53.550;9.964;2023-04-08T05:45:29;9.20;94.30
37285;DHT22;23172;53.550;9.964;2023-04-08T05:50:32;9.20;94.70
37285;DHT22;23172;53.550;9.964;2023-04-08T05:55:35;9.20;94.50
37285;DHT22;23172;53.550;9.964;2023-04-08T06:00:38;9.30;94.50
37285;DHT22;23172;53.550;9.964;2023-04-08T06:05:40;9.30;94.40
37285;DHT22;23172;53.550;9.964;2023-04-08T06:10:48;9.30;94.40
37285;DHT22;23172;53.550;9.964;2023-04-08T06:15:52;9.40;94.50
37285;DHT22;23172;53.550;9.964;2023-04-08T06:20:53;9.30;94.50
37285;DHT22;23172;53.550;9.964;2023-04-08T06:25:55;9.30;94.50
37285;DHT22;23172;53.550;9.964;2023-04-08T06:30:59;9.30;94.50
37285;DHT22;23172;53.550;9.964;2023-04-08T06:36:01;9.30;94.50
37285;DHT22;23172;53.550;9.964;2023-04-08T06:41:05;9.30;94.50
37285;DHT22;23172;53.550;9.964;2023-04-08T06:46:08;9.30;94.60
37285;DHT22;23172;53.550;9.964;2023-04-08T06:51:10;9.30;94.70
37285;DHT22;23172;53.550;9.964;2023-04-08T06:56:12;9.30;95.00
37285;DHT22;23172;53.550;9.964;2023-04-08T07:01:15;9.30;94.80
37285;DHT22;23172;53.550;9.964;2023-04-08T07:06:17;9.30;94.70
37285;DHT22;23172;53.550;9.964;2023-04-08T07:11:19;9.40;94.70
37285;DHT22;23172;53.550;9.964;2023-04-08T07:16:23;9.40;94.70
37285;DHT22;23172;53.550;9.964;2023-04-08T07:21:25;9.30;94.70
37285;DHT22;23172;53.550;9.964;2023-04-08T07:26:27;9.40;94.80
37285;DHT22;23172;53.550;9.964;2023-04-08T07:31:30;9.40;94.80
37285;DHT22;23172;53.550;9.964;2023-04-08T07:36:32;9.50;94.80
37285;DHT22;23172;53.550;9.964;2023-04-08T07:41:34;9.50;94.80
37285;DHT22;23172;53.550;9.964;2023-04-08T07:46:37;9.50;94.90
37285;DHT22;23172;53.550;9.964;2023-04-08T07:51:39;9.60;94.70
37285;DHT22;23172;53.550;9.964;2023-04-08T07:56:44;9.60;94.90
37285;DHT22;23172;53.550;9.964;2023-04-08T08:01:48;9.60;94.90
37285;DHT22;23172;53.550;9.964;2023-04-08T08:06:50;9.70;94.90
37285;DHT22;23172;53.550;9.964;2023-04-08T08:11:52;9.70;94.80
37285;DHT22;23172;53.550;9.964;2023-04-08T08:16:55;9.70;94.80
37285;DHT22;23172;53.550;9.964;2023-04-08T08:21:57;9.70;94.80
37285;DHT22;23172;53.550;9.964;2023-04-08T08:26:59;9.70;94.80
37285;DHT22;23172;53.550;9.964;2023-04-08T08:32:05;9.80;94.80
37285;DHT22;23172;53.550;9.964;2023-04-08T08:37:07;9.80;94.80
37285;DHT22;23172;53.550;9.964;2023-04-08T08:42:18;9.90;94.80
37285;DHT22;23172;53.550;9.964;2023-04-08T08:47:22;10.00;94.70
37285;DHT22;23172;53.550;9.964;2023-04-08T08:52:24;10.00;94.60
37285;DHT22;23172;53.550;9.964;2023-04-08T08:57:25;10.00;94.50
37285;DHT22;23172;53.550;9.964;2023-04-08T09:02:30;10.00;94.40
37285;DHT22;23172;53.550;9.964;2023-04-08T09:07:35;10.10;94.50
37285;DHT22;23172;53.550;9.964;2023-04-08T09:12:52;10.20;94.30
37285;DHT22;23172;53.550;9.964;2023-04-08T09:17:57;10.30;94.30
37285;DHT22;23172;53.550;9.964;2023-04-08T09:23:00;10.40;94.20
37285;DHT22;23172;53.550;9.964;2023-04-08T09:28:02;10.40;94.00
37285;DHT22;23172;53.550;9.964;2023-04-08T09:33:06;10.50;94.00
37285;DHT22;23172;53.550;9.964;2023-04-08T09:38:08;10.50;93.90
37285;DHT22;23172;53.550;9.964;2023-04-08T09:43:12;10.60;93.80
37285;DHT22;23172;53.550;9.964;2023-04-08T09:48:23;10.60;93.80
37285;DHT22;23172;53.550;9.964;2023-04-08T09:53:29;10.80;93.60
37285;DHT22;23172;53.550;9.964;2023-04-08T09:58:41;10.80;93.50
37285;DHT22;23172;53.550;9.964;2023-04-08T10:03:50;10.80;93.30
37285;DHT22;23172;53.550;9.964;2023-04-08T10:08:53;10.80;93.30
37285;DHT22;23172;53.550;9.964;2023-04-08T10:13:56;10.90;93.20
37285;DHT22;23172;53.550;9.964;2023-04-08T10:18:59;10.90;93.20
37285;DHT22;23172;53.550;9.964;2023-04-08T10:24:01;11.00;93.10
37285;DHT22;23172;53.550;9.964;2023-04-08T10:29:30;11.00;93.10
37285;DHT22;23172;53.550;9.964;2023-04-08T10:34:50;11.00;92.90
37285;DHT22;23172;53.550;9.964;2023-04-08T10:39:53;11.00;93.00
37285;DHT22;23172;53.550;9.964;2023-04-08T10:44:59;11.10;93.00
37285;DHT22;23172;53.550;9.964;2023-04-08T10:50:13;11.10;92.90
37285;DHT22;23172;53.550;9.964;2023-04-08T10:55:19;11.10;92.80
37285;DHT22;23172;53.550;9.964;2023-04-08T11:00:32;11.10;92.80
37285;DHT22;23172;53.550;9.964;2023-04-08T11:05:36;11.10;92.70
37285;DHT22;23172;53.550;9.964;2023-04-08T11:10:38;11.10;92.60
37285;DHT22;23172;53.550;9.964;2023-04-08T11:15:41;11.10;92.70
37285;DHT22;23172;53.550;9.964;2023-04-08T11:20:45;11.10;92.60
37285;DHT22;23172;53.550;9.964;2023-04-08T11:25:47;11.10;92.60
37285;DHT22;23172;53.550;9.964;2023-04-08T11:30:49;11.10;92.60
37285;DHT22;23172;53.550;9.964;2023-04-08T11:35:54;11.20;92.60
37285;DHT22;23172;53.550;9.964;2023-04-08T11:40:57;11.20;92.50
37285;DHT22;23172;53.550;9.964;2023-04-08T11:45:59;11.20;92.40
37285;DHT22;23172;53.550;9.964;2023-04-08T11:51:03;11.30;92.30
37285;DHT22;23172;53.550;9.964;2023-04-08T11:56:15;11.20;92.40
37285;DHT22;23172;53.550;9.964;2023-04-08T12:01:18;11.30;92.40
37285;DHT22;23172;53.550;9.964;2023-04-08T12:06:21;11.30;92.30
37285;DHT22;23172;53.550;9.964;2023-04-08T12:11:24;11.30;92.30
37285;DHT22;23172;53.550;9.964;2023-04-08T12:16:25;11.30;92.30
37285;DHT22;23172;53.550;9.964;2023-04-08T12:21:29;11.40;92.30
37285;DHT22;23172;53.550;9.964;2023-04-08T12:26:31;11.40;92.20
37285;DHT22;23172;53.550;9.964;2023-04-08T12:31:33;11.40;92.20
37285;DHT22;23172;53.550;9.964;2023-04-08T12:36:37;11.50;92.10
37285;DHT22;23172;53.550;9.964;2023-04-08T12:41:38;11.50;92.00
37285;DHT22;23172;53.550;9.964;2023-04-08T12:46:40;11.50;92.00
37285;DHT22;23172;53.550;9.964;2023-04-08T12:51:43;11.50;92.00
37285;DHT22;23172;53.550;9.964;2023-04-08T12:56:45;11.40;92.00
37285;DHT22;23172;53.550;9.964;2023-04-08T13:01:48;11.40;92.10
37285;DHT22;23172;53.550;9.964;2023-04-08T13:06:51;11.50;92.00
37285;DHT22;23172;53.550;9.964;2023-04-08T13:11:53;11.50;91.90
37285;DHT22;23172;53.550;9.964;2023-04-08T13:16:55;11.50;91.70
37285;DHT22;23172;53.550;9.964;2023-04-08T13:21:59;11.50;91.60
37285;DHT22;23172;53.550;9.964;2023-04-08T13:27:00;11.50;91.70
37285;DHT22;23172;53.550;9.964;2023-04-08T13:32:03;11.50;91.80
37285;DHT22;23172;53.550;9.964;2023-04-08T13:37:06;11.40;91.70
37285;DHT22;23172;53.550;9.964;2023-04-08T13:42:08;11.40;91.70
37285;DHT22;23172;53.550;9.964;2023-04-08T13:47:10;11.50;91.80
37285;DHT22;23172;53.550;9.964;2023-04-08T13:52:13;11.40;91.70
37285;DHT22;23172;53.550;9.964;2023-04-08T13:57:18;11.40;91.70
37285;DHT22;23172;53.550;9.964;2023-04-08T14:02:20;11.40;91.70
37285;DHT22;23172;53.550;9.964;2023-04-08T14:07:24;11.40;91.70
37285;DHT22;23172;53.550;9.964;2023-04-08T14:12:28;11.40;91.70
37285;DHT22;23172;53.550;9.964;2023-04-08T14:17:30;11.40;91.70
37285;DHT22;23172;53.550;9.964;2023-04-08T14:22:34;11.40;91.70
37285;DHT22;23172;53.550;9.964;2023-04-08T14:27:36;11.40;91.70
37285;DHT22;23172;53.550;9.964;2023-04-08T14:32:37;11.40;91.60
37285;DHT22;23172;53.550;9.964;2023-04-08T14:37:41;11.40;91.70
37285;DHT22;23172;53.550;9.964;2023-04-08T14:42:43;11.40;91.80
37285;DHT22;23172;53.550;9.964;2023-04-08T14:47:45;11.40;91.70
37285;DHT22;23172;53.550;9.964;2023-04-08T14:52:48;11.40;91.80
37285;DHT22;23172;53.550;9.964;2023-04-08T14:57:50;11.30;91.80
37285;DHT22;23172;53.550;9.964;2023-04-08T15:02:52;11.30;91.90
37285;DHT22;23172;53.550;9.964;2023-04-08T15:07:55;11.30;91.90
37285;DHT22;23172;53.550;9.964;2023-04-08T15:12:57;11.20;91.90
37285;DHT22;23172;53.550;9.964;2023-04-08T15:17:59;11.20;92.00
37285;DHT22;23172;53.550;9.964;2023-04-08T15:23:02;11.30;92.00
37285;DHT22;23172;53.550;9.964;2023-04-08T15:28:04;11.30;92.00
37285;DHT22;23172;53.550;9.964;2023-04-08T15:33:06;11.30;92.10
37285;DHT22;23172;53.550;9.964;2023-04-08T15:38:09;11.20;92.20
37285;DHT22;23172;53.550;9.964;2023-04-08T15:43:11;11.20;92.20
37285;DHT22;23172;53.550;9.964;2023-04-08T15:48:13;11.20;92.20
37285;DHT22;23172;53.550;9.964;2023-04-08T15:53:16;11.20;92.10
37285;DHT22;23172;53.550;9.964;2023-04-08T15:58:18;11.20;92.10
37285;DHT22;23172;53.550;9.964;2023-04-08T16:03:20;11.20;92.10
37285;DHT22;23172;53.550;9.964;2023-04-08T16:08:23;11.20;92.20
37285;DHT22;23172;53.550;9.964;2023-04-08T16:13:25;11.20;92.30
37285;DHT22;23172;53.550;9.964;2023-04-08T16:18:28;11.20;92.30
37285;DHT22;23172;53.550;9.964;2023-04-08T16:23:32;11.10;92.30
37285;DHT22;23172;53.550;9.964;2023-04-08T16:28:35;11.10;92.30
37285;DHT22;23172;53.550;9.964;2023-04-08T16:33:39;11.10;92.30
37285;DHT22;23172;53.550;9.964;2023-04-08T16:38:42;11.10;92.30
37285;DHT22;23172;53.550;9.964;2023-04-08T16:43:44;11.00;92.30
37285;DHT22;23172;53.550;9.964;2023-04-08T16:48:46;11.00;92.40
37285;DHT22;23172;53.550;9.964;2023-04-08T16:53:49;11.00;92.50
37285;DHT22;23172;53.550;9.964;2023-04-08T16:58:51;10.90;92.60
37285;DHT22;23172;53.550;9.964;2023-04-08T17:03:53;10.90;92.60
37285;DHT22;23172;53.550;9.964;2023-04-08T17:08:57;10.90;92.60
37285;DHT22;23172;53.550;9.964;2023-04-08T17:13:59;10.90;92.60
37285;DHT22;23172;53.550;9.964;2023-04-08T17:19:01;10.90;92.70
37285;DHT22;23172;53.550;9.964;2023-04-08T17:24:04;10.90;92.80
37285;DHT22;23172;53.550;9.964;2023-04-08T17:29:07;10.90;92.90
37285;DHT22;23172;53.550;9.964;2023-04-08T17:34:09;10.80;93.00
37285;DHT22;23172;53.550;9.964;2023-04-08T17:39:12;10.80;93.10
37285;DHT22;23172;53.550;9.964;2023-04-08T17:44:15;10.70;93.20
37285;DHT22;23172;53.550;9.964;2023-04-08T17:49:17;10.80;93.20
37285;DHT22;23172;53.550;9.964;2023-04-08T17:54:21;10.80;93.20
37285;DHT22;23172;53.550;9.964;2023-04-08T17:59:23;10.70;93.20
37285;DHT22;23172;53.550;9.964;2023-04-08T18:04:25;10.70;93.20
37285;DHT22;23172;53.550;9.964;2023-04-08T18:09:30;10.70;93.30
37285;DHT22;23172;53.550;9.964;2023-04-08T18:14:32;10.70;93.50
37285;DHT22;23172;53.550;9.964;2023-04-08T18:19:35;10.70;93.60
37285;DHT22;23172;53.550;9.964;2023-04-08T18:24:38;10.70;93.60
37285;DHT22;23172;53.550;9.964;2023-04-08T18:29:40;10.70;93.70
37285;DHT22;23172;53.550;9.964;2023-04-08T18:34:42;10.60;94.00
37285;DHT22;23172;53.550;9.964;2023-04-08T18:39:45;10.70;93.80
37285;DHT22;23172;53.550;9.964;2023-04-08T18:44:47;10.60;93.80
37285;DHT22;23172;53.550;9.964;2023-04-08T18:49:48;10.60;93.90
37285;DHT22;23172;53.550;9.964;2023-04-08T18:54:52;10.60;93.90
37285;DHT22;23172;53.550;9.964;2023-04-08T18:59:54;10.60;94.00
37285;DHT22;23172;53.550;9.964;2023-04-08T19:04:55;10.60;94.00
37285;DHT22;23172;53.550;9.964;2023-04-08T19:09:59;10.60;94.10
37285;DHT22;23172;53.550;9.964;2023-04-08T19:15:01;10.60;94.10
37285;DHT22;23172;53.550;9.964;2023-04-08T19:20:04;10.60;94.10
37285;DHT22;23172;53.550;9.964;2023-04-08T19:25:08;10.60;94.10
37285;DHT22;23172;53.550;9.964;2023-04-08T19:30:10;10.50;94.20
37285;DHT22;23172;53.550;9.964;2023-04-08T19:35:12;10.50;94.30
37285;DHT22;23172;53.550;9.964;2023-04-08T19:40:15;10.50;94.30
37285;DHT22;23172;53.550;9.964;2023-04-08T19:45:19;10.50;94.40
37285;DHT22;23172;53.550;9.964;2023-04-08T19:50:20;10.50;94.50
37285;DHT22;23172;53.550;9.964;2023-04-08T19:55:24;10.40;94.50
37285;DHT22;23172;53.550;9.964;2023-04-08T20:00:27;10.40;94.60
37285;DHT22;23172;53.550;9.964;2023-04-08T20:05:29;10.40;94.70
37285;DHT22;23172;53.550;9.964;2023-04-08T20:10:32;10.50;94.70
37285;DHT22;23172;53.550;9.964;2023-04-08T20:15:35;10.50;94.80
37285;DHT22;23172;53.550;9.964;2023-04-08T20:20:37;10.40;95.20
37285;DHT22;23172;53.550;9.964;2023-04-08T20:25:40;10.40;94.90
37285;DHT22;23172;53.550;9.964;2023-04-08T20:30:42;10.40;95.00
37285;DHT22;23172;53.550;9.964;2023-04-08T20:35:44;10.40;95.10
37285;DHT22;23172;53.550;9.964;2023-04-08T20:40:47;10.40;95.60
37285;DHT22;23172;53.550;9.964;2023-04-08T20:45:49;10.40;95.20
37285;DHT22;23172;53.550;9.964;2023-04-08T20:50:51;10.40;95.30
37285;DHT22;23172;53.550;9.964;2023-04-08T20:55:54;10.40;99.90
37285;DHT22;23172;53.550;9.964;2023-04-08T21:00:56;10.30;99.90
37285;DHT22;23172;53.550;9.964;2023-04-08T21:05:59;10.40;99.90
37285;DHT22;23172;53.550;9.964;2023-04-08T21:11:02;10.40;99.90
37285;DHT22;23172;53.550;9.964;2023-04-08T21:16:04;10.40;99.90
37285;DHT22;23172;53.550;9.964;2023-04-08T21:21:09;10.30;99.90
37285;DHT22;23172;53.550;9.964;2023-04-08T21:26:12;10.30;99.90
37285;DHT22;23172;53.550;9.964;2023-04-08T21:31:14;10.30;99.90
37285;DHT22;23172;53.550;9.964;2023-04-08T21:36:16;10.40;95.60
37285;DHT22;23172;53.550;9.964;2023-04-08T21:41:21;10.40;96.00
37285;DHT22;23172;53.550;9.964;2023-04-08T21:46:23;10.40;96.00
37285;DHT22;23172;53.550;9.964;2023-04-08T21:51:25;10.40;96.10
37285;DHT22;23172;53.550;9.964;2023-04-08T21:56:29;10.40;96.10
37285;DHT22;23172;53.550;9.964;2023-04-08T22:01:31;10.40;96.10
37285;DHT22;23172;53.550;9.964;2023-04-08T22:06:33;10.40;96.10
37285;DHT22;23172;53.550;9.964;2023-04-08T22:11:37;10.40;96.10
37285;DHT22;23172;53.550;9.964;2023-04-08T22:16:39;10.40;96.10
37285;DHT22;23172;53.550;9.964;2023-04-08T22:21:41;10.40;96.20
37285;DHT22;23172;53.550;9.964;2023-04-08T22:26:44;10.40;96.20
37285;DHT22;23172;53.550;9.964;2023-04-08T22:31:46;10.40;96.20
37285;DHT22;23172;53.550;9.964;2023-04-08T22:36:48;10.50;96.20
37285;DHT22;23172;53.550;9.964;2023-04-08T22:41:51;10.50;96.20
37285;DHT22;23172;53.550;9.964;2023-04-08T22:46:53;10.40;96.20
37285;DHT22;23172;53.550;9.964;2023-04-08T22:51:55;10.50;96.20
37285;DHT22;23172;53.550;9.964;2023-04-08T22:56:58;10.50;96.30
37285;DHT22;23172;53.550;9.964;2023-04-08T23:02:01;10.50;96.20
37285;DHT22;23172;53.550;9.964;2023-04-08T23:07:03;10.50;96.30
37285;DHT22;23172;53.550;9.964;2023-04-08T23:12:06;10.50;96.30
37285;DHT22;23172;53.550;9.964;2023-04-08T23:17:08;10.50;96.30
37285;DHT22;23172;53.550;9.964;2023-04-08T23:22:10;10.50;96.30
37285;DHT22;23172;53.550;9.964;2023-04-08T23:27:13;10.50;96.40
37285;DHT22;23172;53.550;9.964;2023-04-08T23:32:15;10.50;96.40
37285;DHT22;23172;53.550;9.964;2023-04-08T23:37:17;10.40;96.40
37285;DHT22;23172;53.550;9.964;2023-04-08T23:42:20;10.40;96.40
37285;DHT22;23172;53.550;9.964;2023-04-08T23:47:26;10.40;96.40
37285;DHT22;23172;53.550;9.964;2023-04-08T23:52:30;10.40;96.50
37285;DHT22;23172;53.550;9.964;2023-04-08T23:57:33;10.40;96.60
